ILY weather

Islay Airport
Port Ellen, Scotland, United Kingdom

Public forecast

Using degrees Celsius for public forecast. Weather courtesy of forecast.io.

METAR (pilot weather report)

Retrieved 2019/04/22 23:20 UTC (14 minutes ago):

EGPI 222320Z AUTO 09014KT 060V120 9999 NCD 16/05 Q1000

TAF (pilot weather forecast)

Closest forecast is Glasgow Prestwick Airport, 57.6 nm (106.7 km) E. Retrieved 2019/04/22 18:00 UTC (6 hours ago):

TAF EGPK 221657Z 2218/2318 16012KT CAVOK BECMG 2219/2222 08009KT